Time;durP1;ratioP1;P1;durP2;ratioP2;P2;SDS_P1;SDS_P2;PMS_P1;PMS_P2;Temp;Humidity;BMP_temperature;BMP_pressure;BME280_temperature;BME280_humidity;BME280_pressure;Samples;Min_cycle;Max_cycle;Signal;HPM_P1;HPM_P2
2022/11/14 00:01:11;;;;;;;47.30;12.73;;;;;;;;;;4977225;28;20242;-64
2022/11/14 00:03:39;;;;;;;75.50;12.10;;;;;;;;;;4977557;28;20601;-63
2022/11/14 00:06:07;;;;;;;41.30;12.33;;;;;;;;;;4977170;28;20211;-64
2022/11/14 00:08:34;;;;;;;41.60;12.50;;;;;;;;;;4970150;28;20413;-63
2022/11/14 00:11:02;;;;;;;71.20;12.50;;;;;;;;;;4977863;28;20346;-63
2022/11/14 00:13:30;;;;;;;59.93;12.83;;;;;;;;;;4979521;28;20244;-63
2022/11/14 00:15:57;;;;;;;40.73;12.07;;;;;;;;;;4969695;28;21809;-62
2022/11/14 00:18:24;;;;;;;81.83;13.60;;;;;;;;;;4993197;28;20298;-64
2022/11/14 00:20:52;;;;;;;45.90;12.27;;;;;;;;;;4995116;28;20259;-64
2022/11/14 00:23:20;;;;;;;72.93;14.23;;;;;;;;;;4971958;28;20233;-64
2022/11/14 00:25:47;;;;;;;59.17;12.87;;;;;;;;;;4974869;28;20587;-64
2022/11/14 00:28:15;;;;;;;67.93;12.67;;;;;;;;;;4975594;28;20303;-64
2022/11/14 00:30:45;;;;;;;21.73;11.50;;;;;;;;;;4981101;28;20732;-64
2022/11/14 00:33:12;;;;;;;83.47;12.93;;;;;;;;;;4992537;28;20275;-63
2022/11/14 00:35:50;;;;;;;71.80;12.40;;;;;;;;;;4975918;28;20219;-64
2022/11/14 00:38:17;;;;;;;84.07;13.87;;;;;;;;;;4970915;28;20298;-64
2022/11/14 00:40:45;;;;;;;56.67;12.67;;;;;;;;;;4977635;28;20241;-64
2022/11/14 00:43:12;;;;;;;18.93;12.07;;;;;;;;;;4974151;28;20303;-65
2022/11/14 00:45:39;;;;;;;29.60;11.63;;;;;;;;;;4976008;28;20235;-64
2022/11/14 00:48:07;;;;;;;47.57;11.87;;;;;;;;;;4972030;28;20294;-64
2022/11/14 00:50:34;;;;;;;47.77;12.23;;;;;;;;;;4991867;28;20214;-65
2022/11/14 00:53:01;;;;;;;31.90;11.10;;;;;;;;;;4977031;28;20238;-64
2022/11/14 00:55:29;;;;;;;39.53;11.80;;;;;;;;;;4978948;28;20326;-64
2022/11/14 00:57:56;;;;;;;33.33;12.20;;;;;;;;;;4979067;28;20346;-64
2022/11/14 01:00:23;;;;;;;39.80;12.70;;;;;;;;;;4986656;28;20211;-63
2022/11/14 01:02:51;;;;;;;45.77;12.27;;;;;;;;;;5008370;28;20219;-64
2022/11/14 01:05:18;;;;;;;49.83;11.50;;;;;;;;;;4988847;28;20893;-63
2022/11/14 01:07:45;;;;;;;25.23;11.27;;;;;;;;;;4974589;28;20573;-64
2022/11/14 01:10:12;;;;;;;25.80;11.77;;;;;;;;;;4996303;28;20254;-63
2022/11/14 01:12:40;;;;;;;45.43;11.17;;;;;;;;;;4968790;28;20746;-64
2022/11/14 01:15:07;;;;;;;63.37;11.70;;;;;;;;;;4974580;28;20682;-63
2022/11/14 01:17:35;;;;;;;35.57;11.17;;;;;;;;;;4980540;28;20215;-65
2022/11/14 01:20:03;;;;;;;56.57;11.13;;;;;;;;;;4976805;28;20299;-64
2022/11/14 01:22:30;;;;;;;39.23;11.13;;;;;;;;;;4977885;28;20239;-65
2022/11/14 01:24:57;;;;;;;29.07;10.60;;;;;;;;;;4977037;28;20291;-65
2022/11/14 01:27:25;;;;;;;24.47;11.20;;;;;;;;;;4985925;28;20271;-65
2022/11/14 01:29:52;;;;;;;21.60;10.53;;;;;;;;;;4978853;28;20211;-64
2022/11/14 01:32:19;;;;;;;28.40;11.13;;;;;;;;;;4992391;28;20303;-63
2022/11/14 01:34:46;;;;;;;25.13;11.97;;;;;;;;;;4984592;28;20303;-64
2022/11/14 01:37:14;;;;;;;33.63;11.03;;;;;;;;;;4968139;28;20226;-64
2022/11/14 01:39:41;;;;;;;34.53;11.00;;;;;;;;;;4974266;28;20667;-64
2022/11/14 01:42:09;;;;;;;21.83;10.73;;;;;;;;;;4977944;28;20270;-64
2022/11/14 01:44:39;;;;;;;32.57;11.43;;;;;;;;;;4978963;28;20293;-64
2022/11/14 01:47:06;;;;;;;53.20;11.10;;;;;;;;;;4972477;28;20310;-63
2022/11/14 01:49:39;;;;;;;27.07;11.00;;;;;;;;;;4994195;28;20309;-63
2022/11/14 01:52:09;;;;;;;43.17;10.90;;;;;;;;;;4979294;28;20623;-64
2022/11/14 01:54:43;;;;;;;28.80;10.90;;;;;;;;;;4967445;28;20302;-64
2022/11/14 01:57:11;;;;;;;37.20;11.07;;;;;;;;;;4972064;28;20204;-64
2022/11/14 01:59:41;;;;;;;34.57;11.03;;;;;;;;;;4992820;28;20309;-64
2022/11/14 02:02:13;;;;;;;37.47;12.87;;;;;;;;;;4990049;28;20236;-63
2022/11/14 02:04:43;;;;;;;19.30;10.07;;;;;;;;;;4969450;28;20302;-63
2022/11/14 02:07:11;;;;;;;12.93;9.90;;;;;;;;;;4971789;28;20253;-64
2022/11/14 02:09:41;;;;;;;27.23;11.33;;;;;;;;;;4970105;28;20240;-65
2022/11/14 02:12:10;;;;;;;29.67;10.70;;;;;;;;;;4972577;28;21285;-62
2022/11/14 02:14:38;;;;;;;21.43;11.20;;;;;;;;;;4974398;28;20207;-64
2022/11/14 02:17:05;;;;;;;34.73;11.67;;;;;;;;;;4971309;28;20211;-64
2022/11/14 02:19:56;;;;;;;19.97;11.27;;;;;;;;;;4989255;28;20234;-63
2022/11/14 02:22:30;;;;;;;29.50;11.90;;;;;;;;;;4979110;28;20244;-64
2022/11/14 02:24:58;;;;;;;46.87;12.13;;;;;;;;;;4984091;28;20251;-65
2022/11/14 02:27:25;;;;;;;34.43;13.13;;;;;;;;;;4970770;28;20216;-64
2022/11/14 02:29:52;;;;;;;33.10;12.97;;;;;;;;;;4969408;28;20291;-64
2022/11/14 02:32:19;;;;;;;48.93;13.57;;;;;;;;;;4986397;28;20223;-64
2022/11/14 02:34:47;;;;;;;94.87;15.13;;;;;;;;;;4961305;28;20222;-63
2022/11/14 02:37:14;;;;;;;46.57;13.97;;;;;;;;;;4960939;28;20216;-64
2022/11/14 02:39:41;;;;;;;62.17;13.43;;;;;;;;;;4970336;28;20296;-64
2022/11/14 02:42:09;;;;;;;75.30;14.07;;;;;;;;;;4980021;28;20362;-64
2022/11/14 02:44:36;;;;;;;49.27;14.27;;;;;;;;;;4962649;28;20306;-62
2022/11/14 02:47:04;;;;;;;53.10;14.60;;;;;;;;;;4980237;28;20222;-64
2022/11/14 02:49:31;;;;;;;54.90;15.23;;;;;;;;;;4974903;28;20220;-65
2022/11/14 02:51:58;;;;;;;43.47;13.70;;;;;;;;;;4969620;28;20228;-63
2022/11/14 02:54:25;;;;;;;33.07;14.13;;;;;;;;;;4976933;28;20255;-63
2022/11/14 02:56:53;;;;;;;69.00;15.93;;;;;;;;;;4982976;28;20777;-64
2022/11/14 02:59:20;;;;;;;40.87;13.50;;;;;;;;;;4988071;28;20204;-63
2022/11/14 03:01:47;;;;;;;29.60;13.53;;;;;;;;;;4977099;28;20671;-64
2022/11/14 03:04:15;;;;;;;45.23;13.40;;;;;;;;;;4983964;28;20303;-65
2022/11/14 03:06:42;;;;;;;51.90;13.97;;;;;;;;;;4980305;28;20294;-64
2022/11/14 03:09:09;;;;;;;53.07;14.07;;;;;;;;;;4980643;28;20299;-64
2022/11/14 03:11:38;;;;;;;37.40;13.90;;;;;;;;;;4982334;28;20310;-64
2022/11/14 03:14:05;;;;;;;29.60;14.30;;;;;;;;;;4992838;28;20219;-64
2022/11/14 03:16:33;;;;;;;39.63;15.33;;;;;;;;;;4986026;28;20226;-63
2022/11/14 03:19:00;;;;;;;57.97;15.23;;;;;;;;;;4974236;28;20220;-64
2022/11/14 03:21:27;;;;;;;73.47;16.47;;;;;;;;;;4980060;28;20321;-64
2022/11/14 03:23:55;;;;;;;50.83;15.43;;;;;;;;;;4978831;28;20293;-64
2022/11/14 03:26:22;;;;;;;71.20;16.47;;;;;;;;;;4975677;28;20290;-63
2022/11/14 03:28:49;;;;;;;44.67;15.80;;;;;;;;;;4977146;28;20204;-63
2022/11/14 03:31:17;;;;;;;52.73;15.50;;;;;;;;;;4976051;28;20983;-63
2022/11/14 03:33:44;;;;;;;66.87;16.63;;;;;;;;;;4980364;28;20215;-64
2022/11/14 03:36:11;;;;;;;38.27;17.03;;;;;;;;;;4984732;28;20212;-64
2022/11/14 03:38:39;;;;;;;51.73;18.80;;;;;;;;;;4968775;28;20208;-64
2022/11/14 03:41:06;;;;;;;41.10;17.67;;;;;;;;;;4995394;28;20664;-64
2022/11/14 03:43:34;;;;;;;75.80;17.93;;;;;;;;;;4976704;28;20231;-63
2022/11/14 03:46:02;;;;;;;56.43;16.60;;;;;;;;;;4976865;28;20250;-63
2022/11/14 03:48:29;;;;;;;49.20;16.83;;;;;;;;;;4978773;28;20665;-64
2022/11/14 03:50:58;;;;;;;138.40;19.30;;;;;;;;;;4995643;28;20231;-65
2022/11/14 03:53:25;;;;;;;106.60;18.77;;;;;;;;;;4980789;28;20315;-64
2022/11/14 03:55:52;;;;;;;103.83;18.77;;;;;;;;;;5005603;28;20294;-64
2022/11/14 03:58:19;;;;;;;76.10;18.07;;;;;;;;;;4973207;28;20212;-65
2022/11/14 04:00:47;;;;;;;95.10;18.07;;;;;;;;;;4984182;28;20224;-64
2022/11/14 04:03:14;;;;;;;80.37;18.63;;;;;;;;;;4974264;28;20256;-64
2022/11/14 04:05:45;;;;;;;56.70;17.37;;;;;;;;;;4985107;28;20203;-65
2022/11/14 04:08:12;;;;;;;107.00;19.27;;;;;;;;;;4978046;28;20326;-64
2022/11/14 04:10:40;;;;;;;58.23;19.37;;;;;;;;;;4976394;28;20279;-64
2022/11/14 04:13:07;;;;;;;80.30;18.97;;;;;;;;;;4979355;28;20269;-63
2022/11/14 04:15:35;;;;;;;110.10;18.53;;;;;;;;;;4983851;28;20245;-64
2022/11/14 04:18:02;;;;;;;83.43;18.73;;;;;;;;;;4950953;28;20204;-65
2022/11/14 04:20:30;;;;;;;75.80;18.47;;;;;;;;;;4978299;28;20748;-63
2022/11/14 04:22:57;;;;;;;63.27;17.87;;;;;;;;;;4972768;28;20807;-64
2022/11/14 04:25:24;;;;;;;49.30;19.33;;;;;;;;;;4986393;28;20295;-64
2022/11/14 04:27:51;;;;;;;51.77;18.07;;;;;;;;;;4985264;28;20212;-64
2022/11/14 04:30:19;;;;;;;63.63;20.73;;;;;;;;;;4969569;28;20243;-64
2022/11/14 04:32:48;;;;;;;43.00;18.23;;;;;;;;;;4987582;28;21169;-64
2022/11/14 04:35:15;;;;;;;56.53;19.23;;;;;;;;;;4971186;28;20212;-65
2022/11/14 04:37:42;;;;;;;36.90;18.50;;;;;;;;;;4974311;28;20212;-65
2022/11/14 04:40:10;;;;;;;51.23;18.67;;;;;;;;;;4985289;28;20217;-64
2022/11/14 04:42:37;;;;;;;40.13;17.93;;;;;;;;;;4979987;28;20313;-64
2022/11/14 04:45:05;;;;;;;45.70;18.10;;;;;;;;;;4979775;28;20303;-65
2022/11/14 04:47:32;;;;;;;45.67;17.70;;;;;;;;;;4975880;28;20305;-65
2022/11/14 04:50:00;;;;;;;43.40;18.40;;;;;;;;;;4968695;28;20227;-65
2022/11/14 04:52:27;;;;;;;53.90;19.53;;;;;;;;;;4982848;28;20230;-64
2022/11/14 04:54:54;;;;;;;64.00;19.63;;;;;;;;;;4974744;28;20574;-64
2022/11/14 04:57:22;;;;;;;57.97;19.23;;;;;;;;;;4978505;28;20666;-64
2022/11/14 04:59:49;;;;;;;75.17;19.97;;;;;;;;;;4993196;28;20334;-64
2022/11/14 05:02:16;;;;;;;40.50;19.90;;;;;;;;;;4968476;28;20224;-64
2022/11/14 05:04:46;;;;;;;47.70;19.37;;;;;;;;;;4975543;28;20206;-64
2022/11/14 05:07:14;;;;;;;56.30;19.20;;;;;;;;;;4989980;28;20251;-64
2022/11/14 05:09:41;;;;;;;70.07;20.53;;;;;;;;;;4987357;28;20210;-63
2022/11/14 05:12:09;;;;;;;57.77;19.97;;;;;;;;;;4975911;28;20598;-63
2022/11/14 05:14:36;;;;;;;46.37;20.47;;;;;;;;;;4968055;28;20214;-64
2022/11/14 05:17:03;;;;;;;56.40;21.20;;;;;;;;;;4971763;28;20274;-63
2022/11/14 05:19:31;;;;;;;50.20;21.60;;;;;;;;;;4965408;28;20346;-64
2022/11/14 05:21:58;;;;;;;49.80;21.67;;;;;;;;;;4959887;28;20295;-63
2022/11/14 05:24:27;;;;;;;47.30;22.30;;;;;;;;;;4984025;28;20390;-64
2022/11/14 05:26:54;;;;;;;49.37;20.90;;;;;;;;;;4989249;28;20294;-63
2022/11/14 05:29:22;;;;;;;44.30;22.43;;;;;;;;;;4983814;28;20666;-63
2022/11/14 05:31:49;;;;;;;43.10;22.43;;;;;;;;;;4971537;28;20227;-64
2022/11/14 05:34:16;;;;;;;50.27;22.93;;;;;;;;;;4971003;28;20749;-63
2022/11/14 05:36:44;;;;;;;48.77;22.57;;;;;;;;;;4993005;28;20196;-63
2022/11/14 05:39:11;;;;;;;50.97;26.53;;;;;;;;;;4982254;28;20575;-64
2022/11/14 05:41:38;;;;;;;83.83;45.17;;;;;;;;;;4976700;28;20319;-64
2022/11/14 05:44:05;;;;;;;46.97;23.57;;;;;;;;;;4983024;28;20310;-63
2022/11/14 05:46:33;;;;;;;45.80;24.67;;;;;;;;;;4974778;28;20310;-63
2022/11/14 05:49:00;;;;;;;44.83;22.27;;;;;;;;;;4986252;28;20295;-65
2022/11/14 05:51:27;;;;;;;43.90;22.17;;;;;;;;;;4972821;28;20227;-62
2022/11/14 05:53:55;;;;;;;42.00;22.63;;;;;;;;;;4990311;28;20243;-64
2022/11/14 05:56:22;;;;;;;43.03;21.77;;;;;;;;;;4988350;28;20685;-64
2022/11/14 05:58:50;;;;;;;41.30;21.80;;;;;;;;;;4969374;28;20657;-63
2022/11/14 06:01:17;;;;;;;42.10;23.07;;;;;;;;;;4973130;28;20227;-64
2022/11/14 06:03:46;;;;;;;39.70;21.47;;;;;;;;;;4983291;28;20307;-64
2022/11/14 06:06:15;;;;;;;41.53;22.17;;;;;;;;;;4979903;28;20335;-64
2022/11/14 06:08:42;;;;;;;41.30;22.50;;;;;;;;;;4971917;28;20206;-63
2022/11/14 06:11:11;;;;;;;47.27;22.70;;;;;;;;;;4985272;28;20277;-63
2022/11/14 06:13:38;;;;;;;42.77;23.00;;;;;;;;;;4980259;28;20736;-62
2022/11/14 06:16:07;;;;;;;44.43;22.37;;;;;;;;;;4978318;28;20666;-63
2022/11/14 06:18:34;;;;;;;44.60;22.60;;;;;;;;;;4959970;28;20295;-63
2022/11/14 06:21:03;;;;;;;47.63;24.63;;;;;;;;;;4972280;28;20353;-63
2022/11/14 06:23:30;;;;;;;44.20;23.03;;;;;;;;;;4994144;28;20251;-63
2022/11/14 06:26:05;;;;;;;47.57;23.70;;;;;;;;;;4998689;28;20207;-64
2022/11/14 06:28:33;;;;;;;43.33;22.93;;;;;;;;;;4980874;28;20204;-63
2022/11/14 06:31:01;;;;;;;46.77;23.07;;;;;;;;;;4969544;28;20227;-63
2022/11/14 06:33:29;;;;;;;44.43;22.63;;;;;;;;;;4993943;28;20773;-63
2022/11/14 06:35:58;;;;;;;43.27;22.17;;;;;;;;;;4980564;28;20211;-64
2022/11/14 06:38:25;;;;;;;45.67;22.03;;;;;;;;;;4966588;28;20222;-63
2022/11/14 06:40:53;;;;;;;43.57;21.73;;;;;;;;;;4987080;28;20231;-64
2022/11/14 06:43:20;;;;;;;42.73;20.93;;;;;;;;;;4981068;28;20219;-63
2022/11/14 06:45:47;;;;;;;38.23;19.87;;;;;;;;;;4969025;28;20211;-64
2022/11/14 06:48:15;;;;;;;37.37;21.10;;;;;;;;;;4975427;28;20203;-65
2022/11/14 06:50:42;;;;;;;39.00;20.67;;;;;;;;;;4977484;28;20233;-64
2022/11/14 06:53:09;;;;;;;41.20;22.60;;;;;;;;;;4998175;28;20678;-63
2022/11/14 06:55:37;;;;;;;43.17;21.87;;;;;;;;;;4979899;28;20291;-64
2022/11/14 06:58:04;;;;;;;35.47;21.07;;;;;;;;;;4997831;28;20576;-65
2022/11/14 07:00:31;;;;;;;38.37;20.57;;;;;;;;;;4978587;28;20306;-62
2022/11/14 07:02:59;;;;;;;35.60;21.07;;;;;;;;;;4984319;28;20243;-63
2022/11/14 07:05:27;;;;;;;35.00;21.00;;;;;;;;;;4975797;28;20211;-64
2022/11/14 07:07:54;;;;;;;38.93;21.63;;;;;;;;;;4974471;28;20298;-63
2022/11/14 07:10:21;;;;;;;41.43;21.73;;;;;;;;;;4978014;28;20678;-64
2022/11/14 07:12:48;;;;;;;36.77;20.33;;;;;;;;;;4992817;28;20228;-64
2022/11/14 07:15:16;;;;;;;36.00;20.73;;;;;;;;;;4981663;28;20215;-64
2022/11/14 07:17:43;;;;;;;34.93;20.23;;;;;;;;;;4977616;28;20725;-62
2022/11/14 07:20:11;;;;;;;35.40;20.33;;;;;;;;;;4974777;28;20339;-61
2022/11/14 07:22:38;;;;;;;31.70;19.30;;;;;;;;;;4978311;28;20323;-64
2022/11/14 07:25:06;;;;;;;30.53;17.80;;;;;;;;;;4984266;28;20219;-62
2022/11/14 07:27:33;;;;;;;30.40;16.73;;;;;;;;;;4987626;28;20223;-61
2022/11/14 07:30:01;;;;;;;23.97;15.47;;;;;;;;;;4989129;28;20286;-63
2022/11/14 07:32:28;;;;;;;22.50;13.30;;;;;;;;;;4983841;28;20294;-64
2022/11/14 07:34:56;;;;;;;16.23;10.67;;;;;;;;;;4983946;28;20247;-64
2022/11/14 07:37:28;;;;;;;14.03;8.97;;;;;;;;;;4980165;28;20212;-63
2022/11/14 07:39:55;;;;;;;13.57;8.20;;;;;;;;;;4977704;28;20584;-63
2022/11/14 07:42:23;;;;;;;13.50;8.53;;;;;;;;;;4981754;28;20649;-64
2022/11/14 07:44:50;;;;;;;11.83;7.27;;;;;;;;;;4991322;28;20326;-63
2022/11/14 07:47:18;;;;;;;12.13;7.27;;;;;;;;;;4986956;28;20725;-63
2022/11/14 07:49:46;;;;;;;7.90;5.83;;;;;;;;;;4992321;28;20215;-63
2022/11/14 07:52:16;;;;;;;8.03;5.73;;;;;;;;;;4990039;28;20282;-64
2022/11/14 07:54:43;;;;;;;8.13;5.53;;;;;;;;;;4990337;28;20290;-64
2022/11/14 07:57:11;;;;;;;6.97;4.57;;;;;;;;;;4992204;28;20239;-64
2022/11/14 07:59:38;;;;;;;5.20;4.00;;;;;;;;;;4986829;28;20208;-64
2022/11/14 08:02:05;;;;;;;5.33;4.10;;;;;;;;;;4979136;28;20327;-62
2022/11/14 08:04:33;;;;;;;5.83;4.00;;;;;;;;;;4972652;28;20246;-64
2022/11/14 08:07:00;;;;;;;5.23;3.30;;;;;;;;;;4983656;28;20374;-64
2022/11/14 08:09:28;;;;;;;5.00;4.00;;;;;;;;;;4980447;28;20258;-61
2022/11/14 08:11:55;;;;;;;5.23;3.47;;;;;;;;;;4979619;28;20219;-62
2022/11/14 08:14:22;;;;;;;5.30;3.50;;;;;;;;;;4991353;28;20624;-63
2022/11/14 08:16:50;;;;;;;4.70;4.00;;;;;;;;;;4975675;28;20262;-64
2022/11/14 08:19:17;;;;;;;6.50;4.03;;;;;;;;;;4980691;28;20208;-62
2022/11/14 08:21:45;;;;;;;4.57;3.73;;;;;;;;;;4998911;28;20871;-62
2022/11/14 08:24:12;;;;;;;6.13;4.43;;;;;;;;;;4985637;28;20278;-63
2022/11/14 08:26:39;;;;;;;6.47;4.10;;;;;;;;;;4980317;28;20295;-63
2022/11/14 08:29:07;;;;;;;8.20;4.70;;;;;;;;;;4983561;28;20208;-64
2022/11/14 08:31:34;;;;;;;5.20;4.07;;;;;;;;;;4980706;28;20953;-62
2022/11/14 08:34:01;;;;;;;5.20;4.70;;;;;;;;;;4980347;28;20246;-64
2022/11/14 08:36:29;;;;;;;5.87;4.53;;;;;;;;;;4972044;28;20281;-62
2022/11/14 08:38:56;;;;;;;7.87;4.70;;;;;;;;;;4962783;28;20208;-62
2022/11/14 08:41:28;;;;;;;5.20;4.47;;;;;;;;;;4977374;28;20241;-64
2022/11/14 08:43:55;;;;;;;6.43;4.20;;;;;;;;;;4966126;28;20232;-62
2022/11/14 08:46:23;;;;;;;6.07;4.40;;;;;;;;;;4981238;28;20222;-63
2022/11/14 08:48:50;;;;;;;6.97;4.13;;;;;;;;;;4981475;28;20213;-62
2022/11/14 08:51:18;;;;;;;5.80;4.43;;;;;;;;;;4984950;28;20215;-62
2022/11/14 08:53:45;;;;;;;6.40;4.00;;;;;;;;;;4982273;28;20231;-63
2022/11/14 08:56:12;;;;;;;6.70;3.40;;;;;;;;;;4983576;28;20207;-63
2022/11/14 08:58:41;;;;;;;5.20;4.00;;;;;;;;;;4982682;28;20208;-64
2022/11/14 09:01:09;;;;;;;4.77;3.50;;;;;;;;;;4998848;28;20236;-64
2022/11/14 09:03:36;;;;;;;4.80;3.80;;;;;;;;;;4977719;28;20239;-63
2022/11/14 09:06:04;;;;;;;3.90;3.47;;;;;;;;;;4972202;28;20204;-63
2022/11/14 09:08:31;;;;;;;4.73;3.40;;;;;;;;;;4968282;28;20251;-64
2022/11/14 09:11:00;;;;;;;4.10;3.60;;;;;;;;;;4980145;28;20235;-63
2022/11/14 09:13:32;;;;;;;4.13;3.43;;;;;;;;;;4966143;28;20350;-63
2022/11/14 09:15:59;;;;;;;4.90;3.50;;;;;;;;;;4962554;28;20196;-63
2022/11/14 09:18:27;;;;;;;4.20;3.80;;;;;;;;;;4960367;28;20693;-64
2022/11/14 09:20:59;;;;;;;3.90;3.37;;;;;;;;;;4962624;28;20230;-64
2022/11/14 09:23:27;;;;;;;4.70;3.30;;;;;;;;;;4974787;28;20688;-63
2022/11/14 09:25:56;;;;;;;3.60;3.20;;;;;;;;;;4980958;28;20219;-63
2022/11/14 09:28:24;;;;;;;4.30;2.90;;;;;;;;;;4973182;28;20235;-65
2022/11/14 09:30:51;;;;;;;3.77;2.93;;;;;;;;;;4970511;28;20580;-65
2022/11/14 09:33:18;;;;;;;3.50;3.20;;;;;;;;;;4970394;28;20310;-63
2022/11/14 09:35:46;;;;;;;3.30;3.00;;;;;;;;;;4972785;28;20211;-64
2022/11/14 09:38:13;;;;;;;2.73;2.53;;;;;;;;;;4992750;28;20724;-64
2022/11/14 09:40:45;;;;;;;4.50;2.53;;;;;;;;;;4972521;28;20651;-64
2022/11/14 09:43:21;;;;;;;2.80;2.60;;;;;;;;;;5001531;28;20291;-64
2022/11/14 09:45:50;;;;;;;3.53;3.00;;;;;;;;;;4979434;28;20325;-64
2022/11/14 09:48:24;;;;;;;3.10;2.80;;;;;;;;;;4984669;28;20242;-64
2022/11/14 09:51:05;;;;;;;3.40;3.10;;;;;;;;;;4971228;28;20479;-64
2022/11/14 09:53:42;;;;;;;4.77;3.23;;;;;;;;;;4967336;28;20212;-64
2022/11/14 09:56:12;;;;;;;4.10;3.70;;;;;;;;;;4967564;28;20417;-64
2022/11/14 09:58:41;;;;;;;3.73;3.00;;;;;;;;;;4988002;28;20784;-63
2022/11/14 10:01:20;;;;;;;3.77;3.37;;;;;;;;;;4966094;28;20222;-64
2022/11/14 10:03:47;;;;;;;3.77;2.57;;;;;;;;;;4974126;28;20297;-64
2022/11/14 10:06:22;;;;;;;2.50;2.20;;;;;;;;;;4985280;28;20239;-64
2022/11/14 10:09:09;;;;;;;2.63;2.43;;;;;;;;;;4984014;28;20217;-64
2022/11/14 10:11:37;;;;;;;2.97;2.77;;;;;;;;;;4999443;28;20252;-64
2022/11/14 10:14:34;;;;;;;2.40;2.20;;;;;;;;;;4985991;28;20294;-64
2022/11/14 10:17:40;;;;;;;3.20;2.80;;;;;;;;;;4967143;28;20234;-63
2022/11/14 10:20:19;;;;;;;2.57;2.37;;;;;;;;;;4906200;29;20226;-64
2022/11/14 10:22:49;;;;;;;2.60;2.40;;;;;;;;;;4897021;29;20707;-64
2022/11/14 10:25:21;;;;;;;2.30;2.10;;;;;;;;;;4932663;28;20240;-63
2022/11/14 10:28:08;;;;;;;2.67;2.47;;;;;;;;;;4977526;28;20290;-65
2022/11/14 10:30:40;;;;;;;3.40;2.87;;;;;;;;;;4953726;28;20792;-65
2022/11/14 10:33:17;;;;;;;3.50;3.20;;;;;;;;;;4973623;28;20215;-64
2022/11/14 10:36:04;;;;;;;3.73;3.03;;;;;;;;;;4951293;28;20203;-63
2022/11/14 10:38:38;;;;;;;3.30;3.00;;;;;;;;;;4957105;28;20310;-64
2022/11/14 10:41:06;;;;;;;3.77;3.40;;;;;;;;;;4959222;28;20219;-64
2022/11/14 10:43:39;;;;;;;4.37;3.60;;;;;;;;;;4964484;28;20298;-61
2022/11/14 10:46:09;;;;;;;4.40;4.00;;;;;;;;;;4973142;28;20327;-62
2022/11/14 10:48:39;;;;;;;4.67;4.20;;;;;;;;;;4970712;28;20635;-62
2022/11/14 10:51:27;;;;;;;5.33;4.47;;;;;;;;;;4973019;28;22092;-61
2022/11/14 10:54:01;;;;;;;4.90;4.27;;;;;;;;;;4963771;28;20239;-65
2022/11/14 10:56:28;;;;;;;5.73;4.70;;;;;;;;;;4977791;28;20235;-63
2022/11/14 10:58:56;;;;;;;6.73;6.00;;;;;;;;;;4975940;28;20281;-61
2022/11/14 11:01:36;;;;;;;6.23;4.67;;;;;;;;;;4975358;28;20220;-61
2022/11/14 11:04:23;;;;;;;5.37;4.87;;;;;;;;;;4968244;28;20218;-64
2022/11/14 11:06:52;;;;;;;5.77;5.27;;;;;;;;;;4968503;28;20302;-63
2022/11/14 11:12:16;;;;;;;4.40;4.00;;;;;;;;;;4989265;28;21510;-66
2022/11/14 11:14:45;;;;;;;4.20;3.80;;;;;;;;;;4966299;28;20204;-65
2022/11/14 11:17:19;;;;;;;3.53;3.23;;;;;;;;;;4963191;28;20212;-64
2022/11/14 11:19:47;;;;;;;3.70;3.00;;;;;;;;;;4972136;28;20207;-64
2022/11/14 11:22:24;;;;;;;3.00;2.80;;;;;;;;;;4970400;28;20239;-64
2022/11/14 11:24:52;;;;;;;4.50;3.17;;;;;;;;;;4972136;28;20270;-64
2022/11/14 11:27:24;;;;;;;4.47;3.10;;;;;;;;;;4990880;28;20300;-63
2022/11/14 11:30:03;;;;;;;4.37;2.83;;;;;;;;;;4974773;28;20211;-62
2022/11/14 11:32:31;;;;;;;3.40;3.10;;;;;;;;;;4972054;28;20455;-63
2022/11/14 11:35:01;;;;;;;4.57;3.30;;;;;;;;;;4975861;28;21081;-61
2022/11/14 11:37:47;;;;;;;3.47;3.17;;;;;;;;;;4973996;28;20303;-64
2022/11/14 11:40:17;;;;;;;2.97;2.77;;;;;;;;;;4989694;28;20302;-65
2022/11/14 11:43:03;;;;;;;2.97;2.77;;;;;;;;;;4965477;28;20270;-64
2022/11/14 11:45:52;;;;;;;3.27;2.70;;;;;;;;;;4971533;28;20613;-64
2022/11/14 11:48:21;;;;;;;4.20;3.43;;;;;;;;;;4959219;28;20330;-62
2022/11/14 11:50:49;;;;;;;5.47;3.40;;;;;;;;;;4966827;28;20709;-64
2022/11/14 11:53:21;;;;;;;4.37;3.27;;;;;;;;;;4970939;28;20689;-64
2022/11/14 11:55:51;;;;;;;3.57;3.23;;;;;;;;;;4970778;28;20203;-62
2022/11/14 11:58:23;;;;;;;3.27;2.97;;;;;;;;;;4962192;28;20306;-62
2022/11/14 12:00:54;;;;;;;3.47;2.97;;;;;;;;;;4972179;28;20821;-63
2022/11/14 12:03:23;;;;;;;3.73;2.80;;;;;;;;;;4965773;28;20220;-64
2022/11/14 12:05:58;;;;;;;3.40;3.10;;;;;;;;;;4965273;28;20231;-63
2022/11/14 12:08:43;;;;;;;3.33;3.03;;;;;;;;;;4985604;28;20820;-62
2022/11/14 12:11:14;;;;;;;3.20;2.90;;;;;;;;;;4964823;28;20778;-64
2022/11/14 12:14:00;;;;;;;2.90;2.70;;;;;;;;;;4972357;28;20606;-64
2022/11/14 12:16:47;;;;;;;2.40;2.20;;;;;;;;;;4973348;28;20231;-63
2022/11/14 12:19:34;;;;;;;2.70;2.50;;;;;;;;;;4967056;28;20724;-63
2022/11/14 12:22:01;;;;;;;2.50;2.30;;;;;;;;;;4966534;28;20224;-64
2022/11/14 12:24:30;;;;;;;3.53;2.63;;;;;;;;;;4971284;28;20754;-63
2022/11/14 12:27:00;;;;;;;2.63;2.43;;;;;;;;;;4977485;28;20200;-64
2022/11/14 12:29:46;;;;;;;2.70;2.50;;;;;;;;;;4975636;28;20207;-62
2022/11/14 12:32:17;;;;;;;2.60;2.40;;;;;;;;;;4973166;28;20220;-63
2022/11/14 12:34:45;;;;;;;3.20;3.00;;;;;;;;;;4990166;28;20230;-65
2022/11/14 12:37:21;;;;;;;2.83;2.63;;;;;;;;;;4993006;28;20567;-64
2022/11/14 12:40:00;;;;;;;2.80;2.50;;;;;;;;;;4975257;28;20861;-61
2022/11/14 12:42:29;;;;;;;2.20;1.90;;;;;;;;;;4963590;28;20261;-63
2022/11/14 12:44:56;;;;;;;1.83;1.73;;;;;;;;;;4953757;28;20314;-64
2022/11/14 12:47:26;;;;;;;2.03;1.80;;;;;;;;;;4978788;28;20212;-63
2022/11/14 12:49:55;;;;;;;2.53;2.00;;;;;;;;;;4959607;28;20580;-63
2022/11/14 12:52:42;;;;;;;2.20;2.10;;;;;;;;;;4958460;28;20375;-63
2022/11/14 12:55:22;;;;;;;3.10;2.07;;;;;;;;;;4963782;28;20830;-64
2022/11/14 12:57:55;;;;;;;3.40;2.20;;;;;;;;;;4961823;28;20211;-63
2022/11/14 13:00:23;;;;;;;2.20;2.10;;;;;;;;;;4975346;28;20298;-64
2022/11/14 13:02:56;;;;;;;2.17;2.00;;;;;;;;;;4966282;28;20211;-63
2022/11/14 13:05:24;;;;;;;2.07;1.87;;;;;;;;;;4962670;28;20483;-63
2022/11/14 13:08:07;;;;;;;1.70;1.60;;;;;;;;;;4963472;28;20670;-64
2022/11/14 13:10:39;;;;;;;2.87;1.70;;;;;;;;;;4963959;28;20587;-63
2022/11/14 13:21:47;;;;;;;2.97;2.67;;;;;;;;;;4984440;28;20486;-64
2022/11/14 13:24:15;;;;;;;2.80;2.60;;;;;;;;;;4970050;28;20290;-64
2022/11/14 13:26:42;;;;;;;4.27;2.70;;;;;;;;;;4969514;28;20228;-64
2022/11/14 13:29:32;;;;;;;2.93;2.63;;;;;;;;;;4973028;28;20877;-63
2022/11/14 13:31:59;;;;;;;2.70;2.50;;;;;;;;;;4958081;28;20234;-62
2022/11/14 13:34:36;;;;;;;3.13;2.67;;;;;;;;;;4974759;28;20508;-62
2022/11/14 13:37:23;;;;;;;4.13;2.73;;;;;;;;;;4968097;28;20234;-64
2022/11/14 13:39:54;;;;;;;2.83;2.63;;;;;;;;;;4968887;28;20209;-62
2022/11/14 13:42:21;;;;;;;2.70;2.50;;;;;;;;;;4971372;28;20237;-62
2022/11/14 13:45:07;;;;;;;2.70;2.30;;;;;;;;;;4969382;28;20294;-64
2022/11/14 13:47:40;;;;;;;2.67;2.47;;;;;;;;;;4965083;28;20868;-63
2022/11/14 13:50:10;;;;;;;2.50;2.30;;;;;;;;;;4975567;28;20207;-63
2022/11/14 13:52:45;;;;;;;2.70;2.50;;;;;;;;;;4974288;28;20223;-62
2022/11/14 13:55:41;;;;;;;4.53;2.63;;;;;;;;;;4972066;28;20334;-62
2022/11/14 13:58:27;;;;;;;4.30;2.67;;;;;;;;;;4951543;28;20558;-64
2022/11/14 14:01:00;;;;;;;3.20;2.90;;;;;;;;;;4965299;28;20227;-63
2022/11/14 14:03:27;;;;;;;2.70;2.50;;;;;;;;;;4969205;28;20211;-64
2022/11/14 14:05:58;;;;;;;3.00;2.80;;;;;;;;;;4975307;28;20235;-64
2022/11/14 14:08:37;;;;;;;2.60;2.40;;;;;;;;;;4968463;28;20514;-63
2022/11/14 14:11:17;;;;;;;4.83;3.03;;;;;;;;;;4966198;28;20244;-61
2022/11/14 14:13:47;;;;;;;4.13;3.23;;;;;;;;;;4969988;28;20218;-63
2022/11/14 14:16:41;;;;;;;3.47;3.17;;;;;;;;;;4972938;28;20306;-64
2022/11/14 14:19:35;;;;;;;3.23;2.93;;;;;;;;;;4964330;28;20232;-65
2022/11/14 14:22:09;;;;;;;2.90;2.70;;;;;;;;;;4981776;28;20318;-63
2022/11/14 14:24:41;;;;;;;2.83;2.60;;;;;;;;;;4975980;28;20691;-62
2022/11/14 14:27:28;;;;;;;3.50;3.10;;;;;;;;;;4984714;28;20258;-65
2022/11/14 14:29:55;;;;;;;3.23;2.93;;;;;;;;;;4974549;28;20299;-62
2022/11/14 14:32:23;;;;;;;3.30;3.00;;;;;;;;;;4987390;28;20326;-64
2022/11/14 14:34:55;;;;;;;3.40;3.07;;;;;;;;;;4985158;28;20246;-64
2022/11/14 14:37:24;;;;;;;3.57;3.27;;;;;;;;;;4977349;28;20196;-63
2022/11/14 14:40:01;;;;;;;3.30;2.90;;;;;;;;;;4969418;28;20594;-64
2022/11/14 14:42:40;;;;;;;3.97;2.70;;;;;;;;;;4965123;28;20314;-63
2022/11/14 14:45:14;;;;;;;4.00;3.10;;;;;;;;;;4976586;28;20208;-63
2022/11/14 14:47:43;;;;;;;3.27;2.97;;;;;;;;;;4980863;28;20200;-63
2022/11/14 14:50:20;;;;;;;5.33;3.43;;;;;;;;;;4988684;28;20196;-65
2022/11/14 14:52:55;;;;;;;3.50;3.03;;;;;;;;;;4979733;28;20701;-65
2022/11/14 14:55:27;;;;;;;5.13;3.30;;;;;;;;;;4982779;28;20301;-64
2022/11/14 14:57:54;;;;;;;3.77;3.10;;;;;;;;;;4982627;28;20300;-62